sensor_id;sensor_type;location;lat;lon;timestamp;P1;durP1;ratioP1;P2;durP2;ratioP2
21517;SDS011;61765;45.794;24.150;2023-06-26T00:05:56;15.98;;;7.88;;
21517;SDS011;61765;45.794;24.150;2023-06-26T00:14:05;12.95;;;7.97;;
21517;SDS011;61765;45.794;24.150;2023-06-26T00:22:11;9.85;;;7.47;;
21517;SDS011;61765;45.794;24.150;2023-06-26T00:30:19;14.32;;;9.68;;
21517;SDS011;61765;45.794;24.150;2023-06-26T00:38:24;14.82;;;8.93;;
21517;SDS011;61765;45.794;24.150;2023-06-26T00:46:37;12.77;;;8.55;;
21517;SDS011;61765;45.794;24.150;2023-06-26T00:54:45;11.07;;;7.43;;
21517;SDS011;61765;45.794;24.150;2023-06-26T01:02:58;11.88;;;6.18;;
21517;SDS011;61765;45.794;24.150;2023-06-26T01:11:04;10.90;;;6.28;;
21517;SDS011;61765;45.794;24.150;2023-06-26T01:19:13;11.02;;;6.32;;
21517;SDS011;61765;45.794;24.150;2023-06-26T01:27:30;10.75;;;6.45;;
21517;SDS011;61765;45.794;24.150;2023-06-26T01:35:36;7.93;;;4.90;;
21517;SDS011;61765;45.794;24.150;2023-06-26T01:43:47;4.55;;;3.92;;
21517;SDS011;61765;45.794;24.150;2023-06-26T01:52:11;4.78;;;3.20;;
21517;SDS011;61765;45.794;24.150;2023-06-26T02:00:24;8.32;;;3.58;;
21517;SDS011;61765;45.794;24.150;2023-06-26T02:08:30;6.82;;;3.58;;
21517;SDS011;61765;45.794;24.150;2023-06-26T02:16:38;4.32;;;3.58;;
21517;SDS011;61765;45.794;24.150;2023-06-26T02:24:44;6.28;;;3.85;;
21517;SDS011;61765;45.794;24.150;2023-06-26T02:32:52;9.20;;;3.97;;
21517;SDS011;61765;45.794;24.150;2023-06-26T02:40:57;7.35;;;3.97;;
21517;SDS011;61765;45.794;24.150;2023-06-26T02:49:06;5.65;;;2.97;;
21517;SDS011;61765;45.794;24.150;2023-06-26T02:57:13;5.93;;;3.72;;
21517;SDS011;61765;45.794;24.150;2023-06-26T03:05:21;7.97;;;3.35;;
21517;SDS011;61765;45.794;24.150;2023-06-26T03:13:27;6.20;;;3.33;;
21517;SDS011;61765;45.794;24.150;2023-06-26T03:21:35;4.05;;;2.90;;
21517;SDS011;61765;45.794;24.150;2023-06-26T03:29:41;4.53;;;3.10;;
21517;SDS011;61765;45.794;24.150;2023-06-26T03:37:50;6.22;;;3.38;;
21517;SDS011;61765;45.794;24.150;2023-06-26T03:45:56;6.45;;;3.65;;
21517;SDS011;61765;45.794;24.150;2023-06-26T03:54:05;6.78;;;4.05;;
21517;SDS011;61765;45.794;24.150;2023-06-26T04:02:10;9.18;;;3.60;;
21517;SDS011;61765;45.794;24.150;2023-06-26T04:10:20;5.65;;;3.75;;
21517;SDS011;61765;45.794;24.150;2023-06-26T04:18:25;7.70;;;4.13;;
21517;SDS011;61765;45.794;24.150;2023-06-26T04:26:34;6.43;;;4.40;;
21517;SDS011;61765;45.794;24.150;2023-06-26T04:34:39;6.78;;;4.47;;
21517;SDS011;61765;45.794;24.150;2023-06-26T04:42:50;7.05;;;3.97;;
21517;SDS011;61765;45.794;24.150;2023-06-26T04:50:55;6.78;;;3.53;;
21517;SDS011;61765;45.794;24.150;2023-06-26T04:59:04;5.05;;;3.70;;
21517;SDS011;61765;45.794;24.150;2023-06-26T05:07:12;7.60;;;3.35;;
21517;SDS011;61765;45.794;24.150;2023-06-26T05:15:22;4.90;;;2.88;;
21517;SDS011;61765;45.794;24.150;2023-06-26T05:23:28;8.70;;;4.47;;
21517;SDS011;61765;45.794;24.150;2023-06-26T05:31:40;5.00;;;3.88;;
21517;SDS011;61765;45.794;24.150;2023-06-26T05:39:47;6.18;;;3.45;;
21517;SDS011;61765;45.794;24.150;2023-06-26T05:47:56;7.03;;;3.00;;
21517;SDS011;61765;45.794;24.150;2023-06-26T05:56:01;6.88;;;2.67;;
21517;SDS011;61765;45.794;24.150;2023-06-26T06:04:10;8.15;;;2.85;;
21517;SDS011;61765;45.794;24.150;2023-06-26T06:12:16;3.92;;;2.83;;
21517;SDS011;61765;45.794;24.150;2023-06-26T06:20:24;8.27;;;2.45;;
21517;SDS011;61765;45.794;24.150;2023-06-26T06:28:29;3.83;;;2.65;;
21517;SDS011;61765;45.794;24.150;2023-06-26T06:36:38;3.75;;;2.58;;
21517;SDS011;61765;45.794;24.150;2023-06-26T06:44:43;4.72;;;2.85;;
21517;SDS011;61765;45.794;24.150;2023-06-26T06:52:51;6.47;;;2.95;;
21517;SDS011;61765;45.794;24.150;2023-06-26T07:00:57;3.85;;;2.83;;
21517;SDS011;61765;45.794;24.150;2023-06-26T07:09:08;6.28;;;3.17;;
21517;SDS011;61765;45.794;24.150;2023-06-26T07:17:14;3.97;;;3.20;;
21517;SDS011;61765;45.794;24.150;2023-06-26T07:25:22;5.38;;;2.90;;
21517;SDS011;61765;45.794;24.150;2023-06-26T07:33:27;4.13;;;3.05;;
21517;SDS011;61765;45.794;24.150;2023-06-26T07:41:35;5.50;;;3.45;;
21517;SDS011;61765;45.794;24.150;2023-06-26T07:49:40;4.30;;;2.95;;
21517;SDS011;61765;45.794;24.150;2023-06-26T07:57:49;3.10;;;2.70;;
21517;SDS011;61765;45.794;24.150;2023-06-26T08:05:56;3.15;;;2.65;;
21517;SDS011;61765;45.794;24.150;2023-06-26T08:14:05;3.35;;;2.70;;
21517;SDS011;61765;45.794;24.150;2023-06-26T08:22:10;4.05;;;2.90;;
21517;SDS011;61765;45.794;24.150;2023-06-26T08:30:19;4.75;;;3.00;;
21517;SDS011;61765;45.794;24.150;2023-06-26T08:38:27;4.13;;;3.10;;
21517;SDS011;61765;45.794;24.150;2023-06-26T08:46:35;3.83;;;3.00;;
21517;SDS011;61765;45.794;24.150;2023-06-26T08:54:43;3.95;;;2.85;;
21517;SDS011;61765;45.794;24.150;2023-06-26T09:02:53;5.05;;;3.30;;
21517;SDS011;61765;45.794;24.150;2023-06-26T09:11:00;5.28;;;3.33;;
21517;SDS011;61765;45.794;24.150;2023-06-26T09:19:11;4.00;;;3.28;;
21517;SDS011;61765;45.794;24.150;2023-06-26T09:27:16;5.45;;;3.00;;
21517;SDS011;61765;45.794;24.150;2023-06-26T09:35:25;9.07;;;3.53;;
21517;SDS011;61765;45.794;24.150;2023-06-26T09:43:33;5.93;;;3.30;;
21517;SDS011;61765;45.794;24.150;2023-06-26T09:51:42;3.50;;;2.83;;
21517;SDS011;61765;45.794;24.150;2023-06-26T09:59:47;5.97;;;3.30;;
21517;SDS011;61765;45.794;24.150;2023-06-26T10:07:56;3.95;;;3.55;;
21517;SDS011;61765;45.794;24.150;2023-06-26T10:16:03;6.18;;;3.72;;
21517;SDS011;61765;45.794;24.150;2023-06-26T10:24:13;6.32;;;3.30;;
21517;SDS011;61765;45.794;24.150;2023-06-26T10:32:19;4.55;;;3.60;;
21517;SDS011;61765;45.794;24.150;2023-06-26T10:40:28;9.50;;;7.70;;
21517;SDS011;61765;45.794;24.150;2023-06-26T10:57:07;5.97;;;3.63;;
21517;SDS011;61765;45.794;24.150;2023-06-26T11:05:13;4.25;;;3.58;;
21517;SDS011;61765;45.794;24.150;2023-06-26T11:13:31;6.28;;;3.78;;
21517;SDS011;61765;45.794;24.150;2023-06-26T11:29:49;5.90;;;3.88;;
21517;SDS011;61765;45.794;24.150;2023-06-26T11:37:59;4.53;;;3.90;;
21517;SDS011;61765;45.794;24.150;2023-06-26T11:46:09;4.22;;;3.33;;
21517;SDS011;61765;45.794;24.150;2023-06-26T11:54:14;4.57;;;3.58;;
21517;SDS011;61765;45.794;24.150;2023-06-26T12:02:23;4.72;;;3.28;;
21517;SDS011;61765;45.794;24.150;2023-06-26T12:10:28;3.40;;;2.83;;
21517;SDS011;61765;45.794;24.150;2023-06-26T12:18:42;4.13;;;3.80;;
21517;SDS011;61765;45.794;24.150;2023-06-26T12:26:49;4.93;;;4.43;;
21517;SDS011;61765;45.794;24.150;2023-06-26T12:35:00;5.45;;;3.33;;
21517;SDS011;61765;45.794;24.150;2023-06-26T12:43:05;4.30;;;3.30;;
21517;SDS011;61765;45.794;24.150;2023-06-26T12:51:20;3.17;;;2.88;;
21517;SDS011;61765;45.794;24.150;2023-06-26T12:59:28;5.63;;;3.20;;
21517;SDS011;61765;45.794;24.150;2023-06-26T13:07:36;3.75;;;2.72;;
21517;SDS011;61765;45.794;24.150;2023-06-26T13:15:44;5.93;;;2.90;;
21517;SDS011;61765;45.794;24.150;2023-06-26T13:23:55;3.40;;;3.10;;
21517;SDS011;61765;45.794;24.150;2023-06-26T13:32:01;4.82;;;4.10;;
21517;SDS011;61765;45.794;24.150;2023-06-26T13:40:10;6.07;;;4.00;;
21517;SDS011;61765;45.794;24.150;2023-06-26T13:48:16;4.35;;;3.55;;
21517;SDS011;61765;45.794;24.150;2023-06-26T13:56:24;3.60;;;3.30;;
21517;SDS011;61765;45.794;24.150;2023-06-26T14:04:32;3.55;;;3.25;;
21517;SDS011;61765;45.794;24.150;2023-06-26T14:12:42;5.35;;;4.03;;
21517;SDS011;61765;45.794;24.150;2023-06-26T14:20:47;3.78;;;3.47;;
21517;SDS011;61765;45.794;24.150;2023-06-26T14:28:57;3.88;;;3.40;;
21517;SDS011;61765;45.794;24.150;2023-06-26T14:37:02;3.92;;;3.63;;
21517;SDS011;61765;45.794;24.150;2023-06-26T14:45:11;4.68;;;3.53;;
21517;SDS011;61765;45.794;24.150;2023-06-26T14:53:17;6.27;;;3.60;;
21517;SDS011;61765;45.794;24.150;2023-06-26T15:01:25;4.22;;;3.83;;
21517;SDS011;61765;45.794;24.150;2023-06-26T15:09:32;5.05;;;4.15;;
21517;SDS011;61765;45.794;24.150;2023-06-26T15:17:40;5.13;;;4.63;;
21517;SDS011;61765;45.794;24.150;2023-06-26T15:25:45;6.28;;;4.15;;
21517;SDS011;61765;45.794;24.150;2023-06-26T15:33:53;5.43;;;4.50;;
21517;SDS011;61765;45.794;24.150;2023-06-26T15:41:59;5.57;;;4.30;;
21517;SDS011;61765;45.794;24.150;2023-06-26T15:50:07;4.85;;;4.05;;
21517;SDS011;61765;45.794;24.150;2023-06-26T15:58:13;5.72;;;4.15;;
21517;SDS011;61765;45.794;24.150;2023-06-26T16:06:21;7.55;;;4.20;;
21517;SDS011;61765;45.794;24.150;2023-06-26T16:14:27;5.75;;;4.45;;
21517;SDS011;61765;45.794;24.150;2023-06-26T16:22:35;5.30;;;4.03;;
21517;SDS011;61765;45.794;24.150;2023-06-26T16:30:43;7.22;;;4.95;;
21517;SDS011;61765;45.794;24.150;2023-06-26T16:38:52;6.50;;;4.55;;
21517;SDS011;61765;45.794;24.150;2023-06-26T16:46:57;8.05;;;5.10;;
21517;SDS011;61765;45.794;24.150;2023-06-26T16:55:06;7.75;;;5.13;;
21517;SDS011;61765;45.794;24.150;2023-06-26T17:03:12;5.10;;;4.18;;
21517;SDS011;61765;45.794;24.150;2023-06-26T17:11:21;6.75;;;4.57;;
21517;SDS011;61765;45.794;24.150;2023-06-26T17:19:27;5.30;;;4.78;;
21517;SDS011;61765;45.794;24.150;2023-06-26T17:27:36;6.43;;;4.63;;
21517;SDS011;61765;45.794;24.150;2023-06-26T17:35:42;7.78;;;5.00;;
21517;SDS011;61765;45.794;24.150;2023-06-26T17:43:52;6.07;;;5.00;;
21517;SDS011;61765;45.794;24.150;2023-06-26T17:51:58;5.65;;;4.70;;
21517;SDS011;61765;45.794;24.150;2023-06-26T18:00:07;7.35;;;5.20;;
21517;SDS011;61765;45.794;24.150;2023-06-26T18:08:20;11.52;;;7.10;;
21517;SDS011;61765;45.794;24.150;2023-06-26T18:16:28;19.10;;;12.43;;
21517;SDS011;61765;45.794;24.150;2023-06-26T18:24:34;22.15;;;12.82;;
21517;SDS011;61765;45.794;24.150;2023-06-26T18:32:42;18.92;;;10.95;;
21517;SDS011;61765;45.794;24.150;2023-06-26T18:40:48;10.55;;;6.53;;
21517;SDS011;61765;45.794;24.150;2023-06-26T18:49:02;10.50;;;7.03;;
21517;SDS011;61765;45.794;24.150;2023-06-26T18:57:08;8.20;;;5.80;;
21517;SDS011;61765;45.794;24.150;2023-06-26T19:05:16;7.35;;;5.25;;
21517;SDS011;61765;45.794;24.150;2023-06-26T19:13:23;11.13;;;6.15;;
21517;SDS011;61765;45.794;24.150;2023-06-26T19:21:31;10.85;;;7.03;;
21517;SDS011;61765;45.794;24.150;2023-06-26T19:29:37;10.38;;;7.03;;
21517;SDS011;61765;45.794;24.150;2023-06-26T19:37:46;10.70;;;6.80;;
21517;SDS011;61765;45.794;24.150;2023-06-26T19:46:05;6.80;;;5.55;;
21517;SDS011;61765;45.794;24.150;2023-06-26T19:54:14;12.90;;;7.00;;
21517;SDS011;61765;45.794;24.150;2023-06-26T20:02:19;8.98;;;5.50;;
21517;SDS011;61765;45.794;24.150;2023-06-26T20:10:27;9.23;;;5.90;;
21517;SDS011;61765;45.794;24.150;2023-06-26T20:18:33;14.25;;;6.90;;
21517;SDS011;61765;45.794;24.150;2023-06-26T20:26:45;13.93;;;7.15;;
21517;SDS011;61765;45.794;24.150;2023-06-26T20:34:56;12.05;;;6.70;;
21517;SDS011;61765;45.794;24.150;2023-06-26T20:43:04;10.85;;;6.45;;
21517;SDS011;61765;45.794;24.150;2023-06-26T20:51:12;9.02;;;6.00;;
21517;SDS011;61765;45.794;24.150;2023-06-26T20:59:21;12.02;;;5.93;;
21517;SDS011;61765;45.794;24.150;2023-06-26T21:07:26;9.48;;;6.15;;
21517;SDS011;61765;45.794;24.150;2023-06-26T21:15:35;9.32;;;5.72;;
21517;SDS011;61765;45.794;24.150;2023-06-26T21:23:40;6.45;;;5.05;;
21517;SDS011;61765;45.794;24.150;2023-06-26T21:31:49;8.75;;;6.03;;
21517;SDS011;61765;45.794;24.150;2023-06-26T21:39:55;7.20;;;5.80;;
21517;SDS011;61765;45.794;24.150;2023-06-26T21:48:03;9.93;;;6.07;;
21517;SDS011;61765;45.794;24.150;2023-06-26T21:56:10;13.30;;;5.97;;
21517;SDS011;61765;45.794;24.150;2023-06-26T22:04:18;10.50;;;7.10;;
21517;SDS011;61765;45.794;24.150;2023-06-26T22:12:25;10.98;;;6.30;;
21517;SDS011;61765;45.794;24.150;2023-06-26T22:20:32;8.77;;;6.30;;
21517;SDS011;61765;45.794;24.150;2023-06-26T22:28:38;10.50;;;6.10;;
21517;SDS011;61765;45.794;24.150;2023-06-26T22:36:46;10.48;;;6.22;;
21517;SDS011;61765;45.794;24.150;2023-06-26T22:44:51;8.57;;;6.88;;
21517;SDS011;61765;45.794;24.150;2023-06-26T22:53:00;11.13;;;6.18;;
21517;SDS011;61765;45.794;24.150;2023-06-26T23:01:05;9.90;;;6.32;;
21517;SDS011;61765;45.794;24.150;2023-06-26T23:09:18;9.63;;;6.50;;
21517;SDS011;61765;45.794;24.150;2023-06-26T23:17:23;10.85;;;6.65;;
21517;SDS011;61765;45.794;24.150;2023-06-26T23:25:31;8.77;;;6.53;;
21517;SDS011;61765;45.794;24.150;2023-06-26T23:33:38;11.75;;;6.47;;
21517;SDS011;61765;45.794;24.150;2023-06-26T23:41:46;9.75;;;6.47;;
21517;SDS011;61765;45.794;24.150;2023-06-26T23:49:52;11.07;;;6.55;;
21517;SDS011;61765;45.794;24.150;2023-06-26T23:57:59;8.00;;;6.40;;
